Time,TemperatureF,DewpointF,PressureIn,WindDirection,WindDirectionDegrees,WindSpeedMPH,WindSpeedGustMPH,Humidity,HourlyPrecipIn,Conditions,Clouds,dailyrainin,SoftwareType,DateUTC
2013-08-04 00:04:00,70.4,38.3,29.98,NNW,336,6.9,6.9,31,0.00,CLR,,0.00,WeatherDisplay:10.37,2013-08-04 07:04:00,
2013-08-04 00:05:00,70.4,38.3,29.98,NNW,336,5.8,5.8,31,0.00,CLR,,0.00,WeatherDisplay:10.37,2013-08-04 07:05:00,
2013-08-04 00:10:00,70.2,38.9,29.98,NNW,336,4.6,4.6,32,0.00,CLR,,0.00,WeatherDisplay:10.37,2013-08-04 07:10:00,
2013-08-04 00:15:00,70.3,39.8,29.98,NNW,336,3.5,3.5,33,0.00,CLR,,0.00,WeatherDisplay:10.37,2013-08-04 07:15:00,
2013-08-04 00:20:00,70.5,40.0,29.98,NNW,336,4.0,4.0,33,0.00,CLR,,0.00,WeatherDisplay:10.37,2013-08-04 07:20:00,
2013-08-04 00:25:00,70.4,39.9,29.97,NNW,336,6.9,6.9,33,0.00,CLR,,0.00,WeatherDisplay:10.37,2013-08-04 07:25:00,
2013-08-04 00:30:00,70.2,39.7,29.97,NNW,336,4.6,4.6,33,0.00,CLR,,0.00,WeatherDisplay:10.37,2013-08-04 07:30:00,
2013-08-04 00:35:00,69.7,39.3,29.97,NNW,336,4.0,4.0,33,0.00,CLR,,0.00,WeatherDisplay:10.37,2013-08-04 07:35:00,
2013-08-04 00:40:00,69.2,38.9,29.97,NNW,336,3.5,3.5,33,0.00,CLR,,0.00,WeatherDisplay:10.37,2013-08-04 07:40:00,
2013-08-04 00:45:00,68.9,39.4,29.97,NNW,336,2.3,2.3,34,0.00,CLR,,0.00,WeatherDisplay:10.37,2013-08-04 07:45:00,
2013-08-04 00:50:00,68.7,39.2,29.97,NNW,336,3.5,3.5,34,0.00,CLR,,0.00,WeatherDisplay:10.37,2013-08-04 07:50:00,
2013-08-04 00:55:00,68.5,39.0,29.97,NNW,336,3.5,3.5,34,0.00,CLR,,0.00,WeatherDisplay:10.37,2013-08-04 07:55:00,
2013-08-04 01:00:00,68.4,39.7,29.98,NNW,336,3.5,3.5,35,0.00,CLR,,0.00,WeatherDisplay:10.37,2013-08-04 08:00:00,
2013-08-04 01:05:00,68.5,39.8,29.97,NNW,336,5.0,5.0,35,0.00,CLR,,0.00,WeatherDisplay:10.37,2013-08-04 08:05:00,
2013-08-04 01:10:00,68.7,39.9,29.97,NNW,336,4.6,4.6,35,0.00,CLR,,0.00,WeatherDisplay:10.37,2013-08-04 08:10:00,
2013-08-04 01:15:00,68.6,39.1,29.97,NNW,336,4.0,4.0,34,0.00,CLR,,0.00,WeatherDisplay:10.37,2013-08-04 08:15:00,
2013-08-04 01:20:00,68.4,39.7,29.97,NNW,336,3.5,3.5,35,0.00,CLR,,0.00,WeatherDisplay:10.37,2013-08-04 08:20:00,
2013-08-04 01:25:00,68.2,39.5,29.97,NNW,336,3.5,3.5,35,0.00,CLR,,0.00,WeatherDisplay:10.37,2013-08-04 08:25:00,
2013-08-04 01:30:00,68.0,39.3,29.97,NNW,336,2.3,2.3,35,0.00,CLR,,0.00,WeatherDisplay:10.37,2013-08-04 08:30:00,
2013-08-04 01:35:00,67.7,39.8,29.97,NNW,336,3.5,3.5,36,0.00,CLR,,0.00,WeatherDisplay:10.37,2013-08-04 08:35:00,
2013-08-04 01:40:00,67.5,38.9,29.97,NNW,336,0.0,0.0,35,0.00,CLR,,0.00,WeatherDisplay:10.37,2013-08-04 08:40:00,
2013-08-04 01:45:00,67.4,39.5,29.97,NNW,336,0.0,0.0,36,0.00,CLR,,0.00,WeatherDisplay:10.37,2013-08-04 08:45:00,
2013-08-04 01:51:00,67.4,39.5,29.97,NNW,336,0.0,0.0,36,0.00,CLR,,0.00,WeatherDisplay:10.37,2013-08-04 08:51:00,
2013-08-04 01:56:00,67.6,39.7,29.97,NNW,336,0.0,0.0,36,0.00,CLR,,0.00,WeatherDisplay:10.37,2013-08-04 08:56:00,
2013-08-04 02:01:00,67.5,38.9,29.97,NNW,336,0.0,0.0,35,0.00,CLR,,0.00,WeatherDisplay:10.37,2013-08-04 09:01:00,
2013-08-04 02:06:00,67.2,38.6,29.97,NNW,336,2.3,2.3,35,0.00,CLR,,0.00,WeatherDisplay:10.37,2013-08-04 09:06:00,
2013-08-04 02:11:00,67.1,39.2,29.97,NNW,336,3.5,3.5,36,0.00,CLR,,0.00,WeatherDisplay:10.37,2013-08-04 09:11:00,
2013-08-04 02:16:00,66.8,39.0,29.97,NNW,336,3.5,3.5,36,0.00,CLR,,0.00,WeatherDisplay:10.37,2013-08-04 09:16:00,
2013-08-04 02:21:00,66.3,38.5,29.97,NNW,336,3.5,3.5,36,0.00,CLR,,0.00,WeatherDisplay:10.37,2013-08-04 09:21:00,
2013-08-04 02:26:00,65.9,38.9,29.97,NNW,336,2.3,2.3,37,0.00,CLR,,0.00,WeatherDisplay:10.37,2013-08-04 09:26:00,
2013-08-04 02:31:00,65.5,38.5,29.97,NNW,336,2.3,2.3,37,0.00,CLR,,0.00,WeatherDisplay:10.37,2013-08-04 09:31:00,
2013-08-04 02:36:00,65.4,38.4,29.97,NNW,336,3.5,3.5,37,0.00,CLR,,0.00,WeatherDisplay:10.37,2013-08-04 09:36:00,
2013-08-04 02:41:00,65.2,38.3,29.97,NNW,336,2.3,2.3,37,0.00,CLR,,0.00,WeatherDisplay:10.37,2013-08-04 09:41:00,
2013-08-04 02:46:00,65.0,38.1,29.97,NNW,336,0.0,0.0,37,0.00,CLR,,0.00,WeatherDisplay:10.37,2013-08-04 09:46:00,
2013-08-04 02:51:00,64.8,37.9,29.97,NNW,336,0.0,0.0,37,0.00,CLR,,0.00,WeatherDisplay:10.37,2013-08-04 09:51:00,
2013-08-04 02:56:00,64.7,37.8,29.97,NNW,336,0.0,0.0,37,0.00,CLR,,0.00,WeatherDisplay:10.37,2013-08-04 09:56:00,
2013-08-04 03:01:00,64.5,38.3,29.97,NNW,336,0.0,0.0,38,0.00,CLR,,0.00,WeatherDisplay:10.37,2013-08-04 10:01:00,
2013-08-04 03:06:00,64.3,38.1,29.96,NNW,336,0.0,0.0,38,0.00,CLR,,0.00,WeatherDisplay:10.37,2013-08-04 10:06:00,
2013-08-04 03:11:00,64.1,38.0,29.96,NNW,336,0.0,0.0,38,0.00,CLR,,0.00,WeatherDisplay:10.37,2013-08-04 10:11:00,
2013-08-04 03:16:00,64.0,37.9,29.96,NNW,336,0.0,0.0,38,0.00,CLR,,0.00,WeatherDisplay:10.37,2013-08-04 10:16:00,
2013-08-04 03:21:00,64.0,37.9,29.96,NNW,336,0.0,0.0,38,0.00,CLR,,0.00,WeatherDisplay:10.37,2013-08-04 10:21:00,
2013-08-04 03:26:00,64.2,38.0,29.96,NNW,336,0.0,0.0,38,0.00,CLR,,0.00,WeatherDisplay:10.37,2013-08-04 10:26:00,
2013-08-04 03:31:00,64.3,38.1,29.96,NNW,336,0.0,0.0,38,0.00,CLR,,0.00,WeatherDisplay:10.37,2013-08-04 10:31:00,
2013-08-04 03:36:00,64.3,38.1,29.96,NNW,336,0.0,0.0,38,0.00,CLR,,0.00,WeatherDisplay:10.37,2013-08-04 10:36:00,
2013-08-04 03:41:00,64.0,37.9,29.96,NNW,336,0.0,0.0,38,0.00,CLR,,0.00,WeatherDisplay:10.37,2013-08-04 10:41:00,
2013-08-04 03:46:00,63.9,37.8,29.96,NNW,336,0.0,0.0,38,0.00,CLR,,0.00,WeatherDisplay:10.37,2013-08-04 10:46:00,
2013-08-04 03:51:00,63.8,38.4,29.96,NNW,336,0.0,0.0,39,0.00,CLR,,0.00,WeatherDisplay:10.37,2013-08-04 10:51:00,
2013-08-04 03:56:00,64.1,38.6,29.96,NNW,336,0.0,0.0,39,0.00,CLR,,0.00,WeatherDisplay:10.37,2013-08-04 10:56:00,
2013-08-04 04:01:00,64.5,38.3,29.95,NNW,336,0.0,0.0,38,0.00,CLR,,0.00,WeatherDisplay:10.37,2013-08-04 11:01:00,
2013-08-04 04:06:00,64.4,38.2,29.95,NNW,336,0.0,0.0,38,0.00,CLR,,0.00,WeatherDisplay:10.37,2013-08-04 11:06:00,
2013-08-04 04:11:00,64.4,38.2,29.96,NNW,336,0.0,0.0,38,0.00,CLR,,0.00,WeatherDisplay:10.37,2013-08-04 11:11:00,
2013-08-04 04:16:00,64.4,38.2,29.96,NNW,336,0.0,0.0,38,0.00,CLR,,0.00,WeatherDisplay:10.37,2013-08-04 11:16:00,
2013-08-04 04:21:00,64.1,38.6,29.96,NNW,336,0.0,0.0,39,0.00,CLR,,0.00,WeatherDisplay:10.37,2013-08-04 11:21:00,
2013-08-04 04:26:00,64.0,38.5,29.96,NNW,336,0.0,0.0,39,0.00,CLR,,0.00,WeatherDisplay:10.37,2013-08-04 11:26:00,
2013-08-04 04:31:00,64.0,38.5,29.96,NNW,336,0.0,0.0,39,0.00,CLR,,0.00,WeatherDisplay:10.37,2013-08-04 11:31:00,
2013-08-04 04:36:00,63.8,38.4,29.96,NNW,336,0.0,0.0,39,0.00,CLR,,0.00,WeatherDisplay:10.37,2013-08-04 11:36:00,
2013-08-04 04:41:00,63.4,38.0,29.96,NNW,336,0.0,0.0,39,0.00,CLR,,0.00,WeatherDisplay:10.37,2013-08-04 11:41:00,
2013-08-04 04:46:00,63.0,38.3,29.96,NNW,336,0.0,0.0,40,0.00,CLR,,0.00,WeatherDisplay:10.37,2013-08-04 11:46:00,
2013-08-04 04:51:00,62.7,38.6,29.96,NNW,336,0.0,0.0,41,0.00,CLR,,0.00,WeatherDisplay:10.37,2013-08-04 11:51:00,
2013-08-04 04:56:00,62.6,38.6,29.96,NNW,336,0.0,0.0,41,0.00,CLR,,0.00,WeatherDisplay:10.37,2013-08-04 11:56:00,
2013-08-04 05:01:00,62.4,38.4,29.96,NNW,336,0.0,0.0,41,0.00,CLR,,0.00,WeatherDisplay:10.37,2013-08-04 12:01:00,
2013-08-04 05:06:00,62.1,38.1,29.96,NNW,336,0.0,0.0,41,0.00,CLR,,0.00,WeatherDisplay:10.37,2013-08-04 12:06:00,
2013-08-04 05:11:00,61.9,38.5,29.97,NNW,336,0.0,0.0,42,0.00,CLR,,0.00,WeatherDisplay:10.37,2013-08-04 12:11:00,
2013-08-04 05:16:00,61.6,37.7,29.97,NNW,336,0.0,0.0,41,0.00,CLR,,0.00,WeatherDisplay:10.37,2013-08-04 12:16:00,
2013-08-04 05:21:00,61.4,37.5,29.97,NNW,336,0.0,0.0,41,0.00,CLR,,0.00,WeatherDisplay:10.37,2013-08-04 12:21:00,
2013-08-04 05:26:00,61.1,37.8,29.97,NNW,336,0.0,0.0,42,0.00,CLR,,0.00,WeatherDisplay:10.37,2013-08-04 12:26:00,
2013-08-04 05:31:00,60.7,37.5,29.97,NNW,336,0.0,0.0,42,0.00,CLR,,0.00,WeatherDisplay:10.37,2013-08-04 12:31:00,
2013-08-04 05:36:00,60.1,36.9,29.97,NNW,336,0.0,0.0,42,0.00,CLR,,0.00,WeatherDisplay:10.37,2013-08-04 12:36:00,
2013-08-04 05:41:00,59.5,36.4,29.97,NNW,336,0.0,0.0,42,0.00,CLR,,0.00,WeatherDisplay:10.37,2013-08-04 12:41:00,
2013-08-04 05:46:00,59.0,35.9,29.97,NNW,336,1.2,1.2,42,0.00,CLR,,0.00,WeatherDisplay:10.37,2013-08-04 12:46:00,
2013-08-04 05:51:00,58.8,36.9,29.97,NNW,336,1.2,1.2,44,0.00,CLR,,0.00,WeatherDisplay:10.37,2013-08-04 12:51:00,
2013-08-04 05:56:00,59.0,36.5,29.97,NNW,336,0.0,0.0,43,0.00,CLR,,0.00,WeatherDisplay:10.37,2013-08-04 12:56:00,
2013-08-04 06:01:00,59.2,36.7,29.97,NNW,336,0.0,0.0,43,0.00,CLR,,0.00,WeatherDisplay:10.37,2013-08-04 13:01:00,
2013-08-04 06:06:00,59.6,37.1,29.98,NNW,336,0.0,0.0,43,0.00,CLR,,0.00,WeatherDisplay:10.37,2013-08-04 13:06:00,
2013-08-04 06:11:00,59.9,37.3,29.98,NNW,336,0.0,0.0,43,0.00,CLR,,0.00,WeatherDisplay:10.37,2013-08-04 13:11:00,
2013-08-04 06:16:00,60.2,37.6,29.98,NNW,336,0.0,0.0,43,0.00,CLR,,0.00,WeatherDisplay:10.37,2013-08-04 13:16:00,
2013-08-04 06:21:00,60.5,37.9,29.98,NNW,336,2.3,2.3,43,0.00,CLR,,0.00,WeatherDisplay:10.37,2013-08-04 13:21:00,
2013-08-04 06:26:00,60.8,37.5,29.98,NNW,336,0.0,0.0,42,0.00,CLR,,0.00,WeatherDisplay:10.37,2013-08-04 13:26:00,
2013-08-04 06:31:00,60.9,37.6,29.98,NNW,336,0.0,0.0,42,0.00,CLR,,0.00,WeatherDisplay:10.37,2013-08-04 13:31:00,
2013-08-04 06:36:00,61.0,37.7,29.98,NNW,336,0.0,0.0,42,0.00,CLR,,0.00,WeatherDisplay:10.37,2013-08-04 13:36:00,
2013-08-04 06:41:00,60.9,37.6,29.98,NNW,336,0.0,0.0,42,0.00,CLR,,0.00,WeatherDisplay:10.37,2013-08-04 13:41:00,
2013-08-04 06:46:00,61.0,37.7,29.99,NNW,336,0.0,0.0,42,0.00,CLR,,0.00,WeatherDisplay:10.37,2013-08-04 13:46:00,
2013-08-04 06:51:00,61.6,37.7,29.99,NNW,336,1.0,0.0,41,0.00,CLR,,0.00,WeatherDisplay:10.37,2013-08-04 13:51:00,
2013-08-04 06:56:00,62.7,38.0,29.99,NNW,336,2.3,2.3,40,0.00,CLR,,0.00,WeatherDisplay:10.37,2013-08-04 13:56:00,
2013-08-04 07:01:00,63.8,37.7,29.99,NNW,336,3.5,3.5,38,0.00,CLR,,0.00,WeatherDisplay:10.37,2013-08-04 14:01:00,
2013-08-04 07:06:00,64.9,38.7,29.99,NNW,336,3.0,3.0,38,0.00,CLR,,0.00,WeatherDisplay:10.37,2013-08-04 14:06:00,
2013-08-04 07:11:00,66.0,38.3,29.99,NNW,336,4.0,4.0,36,0.00,CLR,,0.00,WeatherDisplay:10.37,2013-08-04 14:11:00,
2013-08-04 07:16:00,67.0,39.1,29.99,NNW,336,3.5,3.5,36,0.00,CLR,,0.00,WeatherDisplay:10.37,2013-08-04 14:16:00,
2013-08-04 07:21:00,67.6,39.0,29.99,NNW,336,4.6,4.6,35,0.00,CLR,,0.00,WeatherDisplay:10.37,2013-08-04 14:21:00,
2013-08-04 07:26:00,67.8,38.4,29.99,NNW,336,5.8,5.8,34,0.00,CLR,,0.00,WeatherDisplay:10.37,2013-08-04 14:26:00,
2013-08-04 07:31:00,67.9,38.5,29.99,NNW,336,4.6,4.6,34,0.00,CLR,,0.00,WeatherDisplay:10.37,2013-08-04 14:31:00,
2013-08-04 07:36:00,67.9,38.5,29.99,NNW,336,4.6,4.6,34,0.00,CLR,,0.00,WeatherDisplay:10.37,2013-08-04 14:36:00,
2013-08-04 07:41:00,68.0,37.8,29.99,NNW,336,3.5,3.5,33,0.00,CLR,,0.00,WeatherDisplay:10.37,2013-08-04 14:41:00,
2013-08-04 07:46:00,68.0,37.8,29.99,NNW,336,5.0,5.0,33,0.00,CLR,,0.00,WeatherDisplay:10.37,2013-08-04 14:46:00,
2013-08-04 07:51:00,68.1,37.9,29.99,NNW,336,4.6,4.6,33,0.00,CLR,,0.00,WeatherDisplay:10.37,2013-08-04 14:51:00,
2013-08-04 07:56:00,68.4,37.4,29.99,NNW,336,3.5,3.5,32,0.00,CLR,,0.00,WeatherDisplay:10.37,2013-08-04 14:56:00,
2013-08-04 08:01:00,68.9,37.8,29.99,NNW,336,5.8,5.8,32,0.00,CLR,,0.00,WeatherDisplay:10.37,2013-08-04 15:01:00,
2013-08-04 08:06:00,69.4,37.4,29.99,NNW,336,5.0,5.0,31,0.00,CLR,,0.00,WeatherDisplay:10.37,2013-08-04 15:06:00,
2013-08-04 08:11:00,70.0,38.0,29.99,NNW,336,5.8,5.8,31,0.00,CLR,,0.00,WeatherDisplay:10.37,2013-08-04 15:11:00,
2013-08-04 08:16:00,70.6,37.6,29.99,NNW,336,5.8,5.8,30,0.00,CLR,,0.00,WeatherDisplay:10.37,2013-08-04 15:16:00,
2013-08-04 08:21:00,71.3,38.2,29.99,NNW,336,6.9,6.9,30,0.00,CLR,,0.00,WeatherDisplay:10.37,2013-08-04 15:21:00,
2013-08-04 08:26:00,72.1,38.1,30.00,NNW,336,4.6,4.6,29,0.00,CLR,,0.00,WeatherDisplay:10.37,2013-08-04 15:26:00,
2013-08-04 08:31:00,72.9,38.8,29.99,NNW,336,5.0,5.0,29,0.00,CLR,,0.00,WeatherDisplay:10.37,2013-08-04 15:31:00,
2013-08-04 08:36:00,73.6,39.4,29.99,NNW,336,5.8,5.8,29,0.00,CLR,,0.00,WeatherDisplay:10.37,2013-08-04 15:36:00,
2013-08-04 08:41:00,74.4,39.2,29.99,NNW,336,5.8,5.8,28,0.00,CLR,,0.00,WeatherDisplay:10.37,2013-08-04 15:41:00,
2013-08-04 08:46:00,75.2,39.8,29.99,NNW,336,4.6,4.6,28,0.00,CLR,,0.00,WeatherDisplay:10.37,2013-08-04 15:46:00,
2013-08-04 08:51:00,76.0,39.6,29.99,NNW,336,5.0,5.0,27,0.00,CLR,,0.00,WeatherDisplay:10.37,2013-08-04 15:51:00,
2013-08-04 08:56:00,76.8,40.3,29.99,NNW,336,5.8,5.8,27,0.00,CLR,,0.00,WeatherDisplay:10.37,2013-08-04 15:56:00,
2013-08-04 09:01:00,77.7,40.1,29.99,NNW,336,6.9,6.9,26,0.00,CLR,,0.00,WeatherDisplay:10.37,2013-08-04 16:01:00,
2013-08-04 09:06:00,78.5,40.7,29.99,NNW,336,4.0,4.0,26,0.00,CLR,,0.00,WeatherDisplay:10.37,2013-08-04 16:06:00,
2013-08-04 09:11:00,79.3,41.4,29.99,NNW,336,5.0,5.0,26,0.00,CLR,,0.00,WeatherDisplay:10.37,2013-08-04 16:11:00,
2013-08-04 09:17:00,80.0,42.0,29.99,NNW,336,3.5,3.5,26,0.00,CLR,,0.00,WeatherDisplay:10.37,2013-08-04 16:17:00,
2013-08-04 09:22:00,80.7,41.6,29.99,NNW,336,5.8,5.8,25,0.00,CLR,,0.00,WeatherDisplay:10.37,2013-08-04 16:22:00,
2013-08-04 09:27:00,81.6,42.4,29.99,NNW,336,4.6,4.6,25,0.00,CLR,,0.00,WeatherDisplay:10.37,2013-08-04 16:27:00,
2013-08-04 09:32:00,82.2,41.8,29.99,NNW,336,4.6,4.6,24,0.00,CLR,,0.00,WeatherDisplay:10.37,2013-08-04 16:32:00,
2013-08-04 09:37:00,82.8,41.2,29.99,NNW,336,5.8,5.8,23,0.00,CLR,,0.00,WeatherDisplay:10.37,2013-08-04 16:37:00,
2013-08-04 09:42:00,83.3,42.7,29.99,NNW,336,4.6,4.6,24,0.00,CLR,,0.00,WeatherDisplay:10.37,2013-08-04 16:42:00,
2013-08-04 09:47:00,84.1,42.3,29.99,NNW,336,5.8,5.8,23,0.00,CLR,,0.00,WeatherDisplay:10.37,2013-08-04 16:47:00,
2013-08-04 09:52:00,84.5,42.6,29.99,NNW,336,0.0,0.0,23,0.00,CLR,,0.00,WeatherDisplay:10.37,2013-08-04 16:52:00,
2013-08-04 09:57:00,85.7,42.5,29.99,NNW,336,3.5,3.5,22,0.00,CLR,,0.00,WeatherDisplay:10.37,2013-08-04 16:57:00,
2013-08-04 10:02:00,85.7,41.3,29.99,NNW,336,7.0,7.0,21,0.00,CLR,,0.00,WeatherDisplay:10.37,2013-08-04 17:02:00,
2013-08-04 10:07:00,85.6,42.4,29.99,NNW,336,4.6,4.6,22,0.00,CLR,,0.00,WeatherDisplay:10.37,2013-08-04 17:07:00,
2013-08-04 10:12:00,86.1,41.6,29.99,NNW,336,11.5,11.5,21,0.00,CLR,,0.00,WeatherDisplay:10.37,2013-08-04 17:12:00,
2013-08-04 10:17:00,86.3,40.5,29.99,NNW,336,9.2,9.2,20,0.00,CLR,,0.00,WeatherDisplay:10.37,2013-08-04 17:17:00,
2013-08-04 10:22:00,86.3,41.8,29.99,NNW,336,5.8,5.8,21,0.00,CLR,,0.00,WeatherDisplay:10.37,2013-08-04 17:22:00,
2013-08-04 10:27:00,86.0,41.5,29.99,NNW,336,4.6,4.6,21,0.00,CLR,,0.00,WeatherDisplay:10.37,2013-08-04 17:27:00,
2013-08-04 10:32:00,86.6,40.7,29.99,NNW,336,11.5,11.5,20,0.00,CLR,,0.00,WeatherDisplay:10.37,2013-08-04 17:32:00,
2013-08-04 10:37:00,86.4,40.6,29.99,NNW,336,10.4,10.4,20,0.00,CLR,,0.00,WeatherDisplay:10.37,2013-08-04 17:37:00,
2013-08-04 10:42:00,86.1,40.3,29.99,NNW,336,6.9,6.9,20,0.00,CLR,,0.00,WeatherDisplay:10.37,2013-08-04 17:42:00,
2013-08-04 10:47:00,86.4,41.8,29.99,NNW,336,5.8,5.8,21,0.00,CLR,,0.00,WeatherDisplay:10.37,2013-08-04 17:47:00,
2013-08-04 10:52:00,86.3,40.5,29.99,NNW,336,3.5,3.5,20,0.00,CLR,,0.00,WeatherDisplay:10.37,2013-08-04 17:52:00,
2013-08-04 10:57:00,86.5,40.7,29.99,NNW,336,4.6,4.6,20,0.00,CLR,,0.00,WeatherDisplay:10.37,2013-08-04 17:57:00,
2013-08-04 11:02:00,87.6,41.6,29.98,NNW,336,3.5,3.5,20,0.00,CLR,,0.00,WeatherDisplay:10.37,2013-08-04 18:02:00,
2013-08-04 11:07:00,88.9,41.3,29.98,NNW,336,11.0,11.0,19,0.00,CLR,,0.00,WeatherDisplay:10.37,2013-08-04 18:07:00,
2013-08-04 11:12:00,89.7,42.0,29.98,NNW,336,13.8,13.8,19,0.00,CLR,,0.00,WeatherDisplay:10.37,2013-08-04 18:12:00,
2013-08-04 11:17:00,89.2,40.1,29.98,NNW,336,10.4,10.4,18,0.00,CLR,,0.00,WeatherDisplay:10.37,2013-08-04 18:17:00,
2013-08-04 11:22:00,88.3,40.8,29.98,NNW,336,10.4,10.4,19,0.00,CLR,,0.00,WeatherDisplay:10.37,2013-08-04 18:22:00,
2013-08-04 11:27:00,88.1,39.3,29.98,NNW,336,10.4,10.4,18,0.00,CLR,,0.00,WeatherDisplay:10.37,2013-08-04 18:27:00,
2013-08-04 11:32:00,88.0,39.2,29.98,NNW,336,9.2,9.2,18,0.00,CLR,,0.00,WeatherDisplay:10.37,2013-08-04 18:32:00,
2013-08-04 11:37:00,88.0,39.2,29.98,NNW,336,6.9,6.9,18,0.00,CLR,,0.00,WeatherDisplay:10.37,2013-08-04 18:37:00,
2013-08-04 11:42:00,88.9,38.4,29.98,NNW,336,9.2,9.2,17,0.00,CLR,,0.00,WeatherDisplay:10.37,2013-08-04 18:42:00,
2013-08-04 11:47:00,89.1,37.1,29.98,NNW,336,11.5,11.5,16,0.00,CLR,,0.00,WeatherDisplay:10.37,2013-08-04 18:47:00,
2013-08-04 11:52:00,90.0,37.8,29.98,NNW,336,11.5,11.5,16,0.00,CLR,,0.00,WeatherDisplay:10.37,2013-08-04 18:52:00,
2013-08-04 11:57:00,89.8,37.6,29.98,NNW,336,8.1,8.1,16,0.00,CLR,,0.00,WeatherDisplay:10.37,2013-08-04 18:57:00,
2013-08-04 12:02:00,89.4,37.3,29.98,NNW,336,11.5,11.5,16,0.00,CLR,,0.00,WeatherDisplay:10.37,2013-08-04 19:02:00,
2013-08-04 12:07:00,90.1,37.9,29.98,NNW,336,12.7,12.7,16,0.00,CLR,,0.00,WeatherDisplay:10.37,2013-08-04 19:07:00,
2013-08-04 12:12:00,91.0,36.9,29.98,NNW,336,11.5,11.5,15,0.00,CLR,,0.00,WeatherDisplay:10.37,2013-08-04 19:12:00,
2013-08-04 12:17:00,91.5,35.6,29.98,NNW,336,13.8,13.8,14,0.00,CLR,,0.00,WeatherDisplay:10.37,2013-08-04 19:17:00,
2013-08-04 12:22:00,92.0,36.0,29.97,NNW,336,14.0,14.0,14,0.00,CLR,,0.00,WeatherDisplay:10.37,2013-08-04 19:22:00,
2013-08-04 12:27:00,92.4,32.4,29.97,NNW,336,11.5,11.5,12,0.00,CLR,,0.00,WeatherDisplay:10.37,2013-08-04 19:27:00,
2013-08-04 12:32:00,93.1,33.0,29.97,NNW,336,12.7,12.7,12,0.00,CLR,,0.00,WeatherDisplay:10.37,2013-08-04 19:32:00,
2013-08-04 12:37:00,93.5,33.3,29.97,NNW,336,6.0,6.0,12,0.00,CLR,,0.00,WeatherDisplay:10.37,2013-08-04 19:37:00,
2013-08-04 12:42:00,93.4,33.2,29.97,NNW,336,11.0,11.0,12,0.00,CLR,,0.00,WeatherDisplay:10.37,2013-08-04 19:42:00,
2013-08-04 12:47:00,93.6,33.3,29.97,NNW,336,12.0,12.0,12,0.00,CLR,,0.00,WeatherDisplay:10.37,2013-08-04 19:47:00,
2013-08-04 12:52:00,93.5,33.3,29.97,NNW,336,10.4,10.4,12,0.00,CLR,,0.00,WeatherDisplay:10.37,2013-08-04 19:52:00,
2013-08-04 12:57:00,94.0,33.7,29.97,NNW,336,10.4,10.4,12,0.00,CLR,,0.00,WeatherDisplay:10.37,2013-08-04 19:57:00,
2013-08-04 13:02:00,94.7,34.2,29.97,NNW,336,4.6,4.6,12,0.00,CLR,,0.00,WeatherDisplay:10.37,2013-08-04 20:02:00,
2013-08-04 13:07:00,95.1,34.5,29.97,NNW,336,6.9,6.9,12,0.00,CLR,,0.00,WeatherDisplay:10.37,2013-08-04 20:07:00,
2013-08-04 13:12:00,94.9,34.3,29.97,NNW,336,11.5,11.5,12,0.00,CLR,,0.00,WeatherDisplay:10.37,2013-08-04 20:12:00,
2013-08-04 13:17:00,94.8,32.1,29.97,NNW,336,11.5,11.5,11,0.00,CLR,,0.00,WeatherDisplay:10.37,2013-08-04 20:17:00,
2013-08-04 13:22:00,94.2,31.6,29.96,NNW,336,9.2,9.2,11,0.00,CLR,,0.00,WeatherDisplay:10.37,2013-08-04 20:22:00,
2013-08-04 13:27:00,94.7,32.0,29.96,NNW,336,11.5,11.5,11,0.00,CLR,,0.00,WeatherDisplay:10.37,2013-08-04 20:27:00,
2013-08-04 13:32:00,95.3,32.5,29.96,NNW,336,13.8,13.8,11,0.00,CLR,,0.00,WeatherDisplay:10.37,2013-08-04 20:32:00,
2013-08-04 13:37:00,95.2,32.4,29.96,NNW,336,6.0,6.0,11,0.00,CLR,,0.00,WeatherDisplay:10.37,2013-08-04 20:37:00,
2013-08-04 13:42:00,95.4,32.6,29.96,NNW,336,17.3,17.3,11,0.00,CLR,,0.00,WeatherDisplay:10.37,2013-08-04 20:42:00,
2013-08-04 13:47:00,94.8,32.1,29.96,NNW,336,16.0,16.0,11,0.00,CLR,,0.00,WeatherDisplay:10.37,2013-08-04 20:47:00,
2013-08-04 13:52:00,94.9,32.2,29.96,NNW,336,15.0,15.0,11,0.00,CLR,,0.00,WeatherDisplay:10.37,2013-08-04 20:52:00,
2013-08-04 13:57:00,94.9,32.2,29.96,NNW,336,17.3,17.3,11,0.00,CLR,,0.00,WeatherDisplay:10.37,2013-08-04 20:57:00,
2013-08-04 14:02:00,94.6,31.9,29.96,NNW,336,15.0,15.0,11,0.00,CLR,,0.00,WeatherDisplay:10.37,2013-08-04 21:02:00,
2013-08-04 14:07:00,95.5,32.6,29.96,NNW,336,15.0,15.0,11,0.00,CLR,,0.00,WeatherDisplay:10.37,2013-08-04 21:07:00,
2013-08-04 14:12:00,95.1,32.3,29.96,NNW,336,13.8,13.8,11,0.00,CLR,,0.00,WeatherDisplay:10.37,2013-08-04 21:12:00,
2013-08-04 14:18:00,95.4,32.6,29.96,NNW,336,16.0,16.0,11,0.00,CLR,,0.00,WeatherDisplay:10.37,2013-08-04 21:18:00,
2013-08-04 14:23:00,95.8,32.9,29.96,NNW,336,18.4,18.4,11,0.00,CLR,,0.00,WeatherDisplay:10.37,2013-08-04 21:23:00,
2013-08-04 14:28:00,95.6,30.3,29.95,NNW,336,18.4,18.4,10,0.00,CLR,,0.00,WeatherDisplay:10.37,2013-08-04 21:28:00,
2013-08-04 14:32:00,95.4,30.2,29.95,NNW,336,18.4,18.4,10,0.00,CLR,,0.00,WeatherDisplay:10.37,2013-08-04 21:32:00,
2013-08-04 14:38:00,95.4,30.2,29.95,NNW,336,18.4,18.4,10,0.00,CLR,,0.00,WeatherDisplay:10.37,2013-08-04 21:38:00,
2013-08-04 14:43:00,94.6,29.6,29.95,NNW,336,16.1,16.1,10,0.00,CLR,,0.00,WeatherDisplay:10.37,2013-08-04 21:43:00,
2013-08-04 14:48:00,95.1,30.0,29.95,NNW,336,12.7,12.7,10,0.00,CLR,,0.00,WeatherDisplay:10.37,2013-08-04 21:48:00,
2013-08-04 14:49:00,95.3,30.1,29.95,NNW,336,16.1,16.1,10,0.00,CLR,,0.00,WeatherDisplay:10.37,2013-08-04 21:49:00,
2013-08-04 14:54:00,95.4,32.6,29.95,NNW,336,18.4,18.4,11,0.00,CLR,,0.00,WeatherDisplay:10.37,2013-08-04 21:54:00,
2013-08-04 14:59:00,95.6,34.9,29.94,NNW,336,23.0,23.0,12,0.00,CLR,,0.00,WeatherDisplay:10.37,2013-08-04 21:59:00,
2013-08-04 15:04:00,95.6,32.7,29.94,NNW,336,15.0,15.0,11,0.00,CLR,,0.00,WeatherDisplay:10.37,2013-08-04 22:04:00,
2013-08-04 15:09:00,95.2,34.6,29.94,NNW,336,17.3,17.3,12,0.00,CLR,,0.00,WeatherDisplay:10.37,2013-08-04 22:09:00,
2013-08-04 15:14:00,94.8,34.3,29.94,NNW,336,19.6,19.6,12,0.00,CLR,,0.00,WeatherDisplay:10.37,2013-08-04 22:14:00,
2013-08-04 15:19:00,94.9,34.3,29.94,NNW,336,20.7,20.7,12,0.00,CLR,,0.00,WeatherDisplay:10.37,2013-08-04 22:19:00,
2013-08-04 15:24:00,94.9,34.3,29.94,NNW,336,19.6,19.6,12,0.00,CLR,,0.00,WeatherDisplay:10.37,2013-08-04 22:24:00,
2013-08-04 15:29:00,94.6,34.1,29.94,NNW,336,17.3,17.3,12,0.00,CLR,,0.00,WeatherDisplay:10.37,2013-08-04 22:29:00,
2013-08-04 15:34:00,94.7,34.2,29.94,NNW,336,18.0,18.0,12,0.00,CLR,,0.00,WeatherDisplay:10.37,2013-08-04 22:34:00,
2013-08-04 15:39:00,95.1,32.3,29.94,NNW,336,18.4,18.4,11,0.00,CLR,,0.00,WeatherDisplay:10.37,2013-08-04 22:39:00,
2013-08-04 15:44:00,94.4,29.4,29.94,NNW,336,18.4,18.4,10,0.00,CLR,,0.00,WeatherDisplay:10.37,2013-08-04 22:44:00,
2013-08-04 15:49:00,94.6,31.9,29.94,NNW,336,16.0,16.0,11,0.00,CLR,,0.00,WeatherDisplay:10.37,2013-08-04 22:49:00,
2013-08-04 15:54:00,95.0,32.3,29.94,NNW,336,19.6,19.6,11,0.00,CLR,,0.00,WeatherDisplay:10.37,2013-08-04 22:54:00,
2013-08-04 15:59:00,94.8,32.1,29.94,NNW,336,16.1,16.1,11,0.00,CLR,,0.00,WeatherDisplay:10.37,2013-08-04 22:59:00,
2013-08-04 16:04:00,94.1,33.7,29.94,NNW,336,21.9,21.9,12,0.00,CLR,,0.00,WeatherDisplay:10.37,2013-08-04 23:04:00,
2013-08-04 16:10:00,93.9,35.6,29.93,NNW,336,21.0,21.0,13,0.00,CLR,,0.00,WeatherDisplay:10.37,2013-08-04 23:10:00,
2013-08-04 16:14:00,94.4,36.0,29.93,NNW,336,21.9,21.9,13,0.00,CLR,,0.00,WeatherDisplay:10.37,2013-08-04 23:14:00,
2013-08-04 16:20:00,94.5,36.1,29.93,NNW,336,21.9,21.9,13,0.00,CLR,,0.00,WeatherDisplay:10.37,2013-08-04 23:20:00,
2013-08-04 16:25:00,94.7,38.1,29.93,NNW,336,18.4,18.4,14,0.00,CLR,,0.00,WeatherDisplay:10.37,2013-08-04 23:25:00,
2013-08-04 16:30:00,95.1,34.5,29.93,NNW,336,19.6,19.6,12,0.00,CLR,,0.00,WeatherDisplay:10.37,2013-08-04 23:30:00,
2013-08-04 16:35:00,94.6,36.1,29.93,NNW,336,20.7,20.7,13,0.00,CLR,,0.00,WeatherDisplay:10.37,2013-08-04 23:35:00,
2013-08-04 16:40:00,94.3,37.8,29.93,NNW,336,21.9,21.9,14,0.00,CLR,,0.00,WeatherDisplay:10.37,2013-08-04 23:40:00,
2013-08-04 16:45:00,93.6,39.0,29.93,NNW,336,21.9,21.9,15,0.00,CLR,,0.00,WeatherDisplay:10.37,2013-08-04 23:45:00,
2013-08-04 16:50:00,93.6,40.7,29.93,NNW,336,18.0,18.0,16,0.00,CLR,,0.00,WeatherDisplay:10.37,2013-08-04 23:50:00,
2013-08-04 16:55:00,93.0,40.2,29.93,NNW,336,21.9,21.9,16,0.00,CLR,,0.00,WeatherDisplay:10.37,2013-08-04 23:55:00,
2013-08-04 17:00:00,92.4,41.3,29.93,NNW,336,24.2,24.2,17,0.00,CLR,,0.00,WeatherDisplay:10.37,2013-08-05 00:00:00,
2013-08-04 17:05:00,92.4,41.3,29.93,NNW,336,21.9,21.9,17,0.00,CLR,,0.00,WeatherDisplay:10.37,2013-08-05 00:05:00,
2013-08-04 17:10:00,91.6,42.1,29.93,NNW,336,20.7,20.7,18,0.00,CLR,,0.00,WeatherDisplay:10.37,2013-08-05 00:10:00,
2013-08-04 17:15:00,91.5,42.0,29.93,NNW,336,20.7,20.7,18,0.00,CLR,,0.00,WeatherDisplay:10.37,2013-08-05 00:15:00,
2013-08-04 17:20:00,91.5,42.0,29.93,NNW,336,18.4,18.4,18,0.00,CLR,,0.00,WeatherDisplay:10.37,2013-08-05 00:20:00,
2013-08-04 17:25:00,90.8,42.9,29.93,NNW,336,23.0,23.0,19,0.00,CLR,,0.00,WeatherDisplay:10.37,2013-08-05 00:25:00,
2013-08-04 17:30:00,90.7,41.4,29.93,NNW,336,19.6,19.6,18,0.00,CLR,,0.00,WeatherDisplay:10.37,2013-08-05 00:30:00,
2013-08-04 17:35:00,90.8,40.0,29.93,NNW,336,19.6,19.6,17,0.00,CLR,,0.00,WeatherDisplay:10.37,2013-08-05 00:35:00,
2013-08-04 17:40:00,90.9,38.5,29.93,NNW,336,20.7,20.7,16,0.00,CLR,,0.00,WeatherDisplay:10.37,2013-08-05 00:40:00,
2013-08-04 17:45:00,90.8,40.0,29.93,NNW,336,19.6,19.6,17,0.00,CLR,,0.00,WeatherDisplay:10.37,2013-08-05 00:45:00,
2013-08-04 17:50:00,90.7,39.9,29.93,NNW,336,17.3,17.3,17,0.00,CLR,,0.00,WeatherDisplay:10.37,2013-08-05 00:50:00,
2013-08-04 17:55:00,90.0,39.3,29.93,NNW,336,21.9,21.9,17,0.00,CLR,,0.00,WeatherDisplay:10.37,2013-08-05 00:55:00,
2013-08-04 18:00:00,89.7,39.1,29.93,NNW,336,17.3,17.3,17,0.00,CLR,,0.00,WeatherDisplay:10.37,2013-08-05 01:00:00,
2013-08-04 18:05:00,89.8,40.6,29.93,NNW,336,19.6,19.6,18,0.00,CLR,,0.00,WeatherDisplay:10.37,2013-08-05 01:05:00,
2013-08-04 18:10:00,89.6,40.5,29.93,NNW,336,19.6,19.6,18,0.00,CLR,,0.00,WeatherDisplay:10.37,2013-08-05 01:10:00,
2013-08-04 18:15:00,89.6,40.5,29.92,NNW,336,23.0,23.0,18,0.00,CLR,,0.00,WeatherDisplay:10.37,2013-08-05 01:15:00,
2013-08-04 18:20:00,89.4,41.7,29.92,NNW,336,17.3,17.3,19,0.00,CLR,,0.00,WeatherDisplay:10.37,2013-08-05 01:20:00,
2013-08-04 18:25:00,89.0,41.4,29.93,NNW,336,24.2,24.2,19,0.00,CLR,,0.00,WeatherDisplay:10.37,2013-08-05 01:25:00,
2013-08-04 18:30:00,88.1,39.3,29.93,NNW,336,23.0,23.0,18,0.00,CLR,,0.00,WeatherDisplay:10.37,2013-08-05 01:30:00,
2013-08-04 18:35:00,88.0,40.6,29.92,NNW,336,16.1,16.1,19,0.00,CLR,,0.00,WeatherDisplay:10.37,2013-08-05 01:35:00,
2013-08-04 18:40:00,88.1,40.6,29.93,NNW,336,20.7,20.7,19,0.00,CLR,,0.00,WeatherDisplay:10.37,2013-08-05 01:40:00,
2013-08-04 18:45:00,87.5,38.8,29.93,NNW,336,24.2,24.2,18,0.00,CLR,,0.00,WeatherDisplay:10.37,2013-08-05 01:45:00,
2013-08-04 18:50:00,87.1,39.8,29.93,NNW,336,23.0,23.0,19,0.00,CLR,,0.00,WeatherDisplay:10.37,2013-08-05 01:50:00,
2013-08-04 18:55:00,86.8,40.9,29.93,NNW,336,19.6,19.6,20,0.00,CLR,,0.00,WeatherDisplay:10.37,2013-08-05 01:55:00,
2013-08-04 19:00:00,86.5,40.7,29.93,NNW,336,21.9,21.9,20,0.00,CLR,,0.00,WeatherDisplay:10.37,2013-08-05 02:00:00,
2013-08-04 19:05:00,86.4,41.8,29.93,NNW,336,18.4,18.4,21,0.00,CLR,,0.00,WeatherDisplay:10.37,2013-08-05 02:05:00,
2013-08-04 19:10:00,85.9,40.2,29.93,NNW,336,18.4,18.4,20,0.00,CLR,,0.00,WeatherDisplay:10.37,2013-08-05 02:10:00,
2013-08-04 19:15:00,85.5,41.1,29.93,NNW,336,19.6,19.6,21,0.00,CLR,,0.00,WeatherDisplay:10.37,2013-08-05 02:15:00,
2013-08-04 19:20:00,85.1,40.8,29.93,NNW,336,24.2,24.2,21,0.00,CLR,,0.00,WeatherDisplay:10.37,2013-08-05 02:20:00,
2013-08-04 19:25:00,84.6,41.6,29.94,NNW,336,20.7,20.7,22,0.00,CLR,,0.00,WeatherDisplay:10.37,2013-08-05 02:25:00,
2013-08-04 19:30:00,84.0,39.9,29.94,NNW,336,19.6,19.6,21,0.00,CLR,,0.00,WeatherDisplay:10.37,2013-08-05 02:30:00,
2013-08-04 19:35:00,83.3,39.3,29.94,NNW,336,21.9,21.9,21,0.00,CLR,,0.00,WeatherDisplay:10.37,2013-08-05 02:35:00,
2013-08-04 19:40:00,82.8,40.1,29.95,NNW,336,19.6,19.6,22,0.00,CLR,,0.00,WeatherDisplay:10.37,2013-08-05 02:40:00,
2013-08-04 19:45:00,82.3,39.6,29.95,NNW,336,17.0,17.0,22,0.00,CLR,,0.00,WeatherDisplay:10.37,2013-08-05 02:45:00,
2013-08-04 19:50:00,82.0,38.2,29.95,NNW,336,21.9,21.9,21,0.00,CLR,,0.00,WeatherDisplay:10.37,2013-08-05 02:50:00,
2013-08-04 19:55:00,81.7,38.0,29.95,NNW,336,19.6,19.6,21,0.00,CLR,,0.00,WeatherDisplay:10.37,2013-08-05 02:55:00,
2013-08-04 20:00:00,81.4,37.7,29.95,NNW,336,19.6,19.6,21,0.00,CLR,,0.00,WeatherDisplay:10.37,2013-08-05 03:00:00,
2013-08-04 20:05:00,81.2,36.3,29.95,NNW,336,18.0,18.0,20,0.00,CLR,,0.00,WeatherDisplay:10.37,2013-08-05 03:05:00,
2013-08-04 20:10:00,80.9,38.5,29.95,NNW,336,18.4,18.4,22,0.00,CLR,,0.00,WeatherDisplay:10.37,2013-08-05 03:10:00,
2013-08-04 20:15:00,80.3,39.1,29.95,NNW,336,15.0,15.0,23,0.00,CLR,,0.00,WeatherDisplay:10.37,2013-08-05 03:15:00,
2013-08-04 20:20:00,79.9,39.9,29.96,NNW,336,17.0,17.0,24,0.00,CLR,,0.00,WeatherDisplay:10.37,2013-08-05 03:20:00,
2013-08-04 20:25:00,79.5,39.5,29.96,NNW,336,16.1,16.1,24,0.00,CLR,,0.00,WeatherDisplay:10.37,2013-08-05 03:25:00,
2013-08-04 20:30:00,79.2,39.3,29.96,NNW,336,15.0,15.0,24,0.00,CLR,,0.00,WeatherDisplay:10.37,2013-08-05 03:30:00,
2013-08-04 20:35:00,78.9,40.1,29.96,NNW,336,11.5,11.5,25,0.00,CLR,,0.00,WeatherDisplay:10.37,2013-08-05 03:35:00,
2013-08-04 20:40:00,78.5,38.7,29.96,NNW,336,13.0,13.0,24,0.00,CLR,,0.00,WeatherDisplay:10.37,2013-08-05 03:40:00,
2013-08-04 20:45:00,78.2,38.4,29.97,NNW,336,11.5,11.5,24,0.00,CLR,,0.00,WeatherDisplay:10.37,2013-08-05 03:45:00,
2013-08-04 20:50:00,77.9,37.1,29.97,NNW,336,12.7,12.7,23,0.00,CLR,,0.00,WeatherDisplay:10.37,2013-08-05 03:50:00,
2013-08-04 20:55:00,77.6,35.7,29.97,NNW,336,11.5,11.5,22,0.00,CLR,,0.00,WeatherDisplay:10.37,2013-08-05 03:55:00,
2013-08-04 21:00:00,77.3,35.5,29.97,NNW,336,9.2,9.2,22,0.00,CLR,,0.00,WeatherDisplay:10.37,2013-08-05 04:00:00,
2013-08-04 21:01:00,77.3,35.5,29.98,NNW,336,10.4,10.4,22,0.00,CLR,,0.00,WeatherDisplay:10.37,2013-08-05 04:01:00,
2013-08-04 21:02:00,77.1,36.4,29.98,NNW,336,8.0,8.0,23,0.00,CLR,,0.00,WeatherDisplay:10.37,2013-08-05 04:02:00,
2013-08-04 21:03:00,77.0,36.3,29.98,NNW,336,8.1,8.1,23,0.00,CLR,,0.00,WeatherDisplay:10.37,2013-08-05 04:03:00,
2013-08-04 21:07:00,76.7,35.0,29.98,NNW,336,10.4,10.4,22,0.00,CLR,,0.00,WeatherDisplay:10.37,2013-08-05 04:07:00,
2013-08-04 21:12:00,76.5,34.8,29.98,NNW,336,5.8,5.8,22,0.00,CLR,,0.00,WeatherDisplay:10.37,2013-08-05 04:12:00,
2013-08-04 21:18:00,76.2,34.6,29.98,NNW,336,9.2,9.2,22,0.00,CLR,,0.00,WeatherDisplay:10.37,2013-08-05 04:18:00,
2013-08-04 21:23:00,75.9,34.3,29.98,NNW,336,6.9,6.9,22,0.00,CLR,,0.00,WeatherDisplay:10.37,2013-08-05 04:23:00,
2013-08-04 21:28:00,75.3,31.4,29.98,NNW,336,11.5,11.5,20,0.00,CLR,,0.00,WeatherDisplay:10.37,2013-08-05 04:28:00,
2013-08-04 21:33:00,75.3,31.4,29.99,NNW,336,10.4,10.4,20,0.00,CLR,,0.00,WeatherDisplay:10.37,2013-08-05 04:33:00,
2013-08-04 21:38:00,75.3,30.2,29.99,NNW,336,10.4,10.4,19,0.00,CLR,,0.00,WeatherDisplay:10.37,2013-08-05 04:38:00,
2013-08-04 21:43:00,75.1,28.7,29.99,NNW,336,10.4,10.4,18,0.00,CLR,,0.00,WeatherDisplay:10.37,2013-08-05 04:43:00,
2013-08-04 21:48:00,75.1,27.3,29.99,NNW,336,11.5,11.5,17,0.00,CLR,,0.00,WeatherDisplay:10.37,2013-08-05 04:48:00,
2013-08-04 21:53:00,75.1,27.3,29.99,NNW,336,11.5,11.5,17,0.00,CLR,,0.00,WeatherDisplay:10.37,2013-08-05 04:53:00,
2013-08-04 21:58:00,75.0,25.7,29.99,NNW,336,11.5,11.5,16,0.00,CLR,,0.00,WeatherDisplay:10.37,2013-08-05 04:58:00,
2013-08-04 22:03:00,74.6,25.4,29.99,NNW,336,6.9,6.9,16,0.00,CLR,,0.00,WeatherDisplay:10.37,2013-08-05 05:03:00,
2013-08-04 22:08:00,74.0,24.9,29.99,NNW,336,6.9,6.9,16,0.00,CLR,,0.00,WeatherDisplay:10.37,2013-08-05 05:08:00,
2013-08-04 22:13:00,73.6,23.1,29.99,NNW,336,5.8,5.8,15,0.00,CLR,,0.00,WeatherDisplay:10.37,2013-08-05 05:13:00,
2013-08-04 22:18:00,73.9,23.3,29.99,NNW,336,6.9,6.9,15,0.00,CLR,,0.00,WeatherDisplay:10.37,2013-08-05 05:18:00,
2013-08-04 22:23:00,74.3,22.0,29.98,NNW,336,7.0,7.0,14,0.00,CLR,,0.00,WeatherDisplay:10.37,2013-08-05 05:23:00,
2013-08-04 22:28:00,74.4,22.1,29.99,NNW,336,6.9,6.9,14,0.00,CLR,,0.00,WeatherDisplay:10.37,2013-08-05 05:28:00,
2013-08-04 22:33:00,74.8,24.0,29.98,NNW,336,9.2,9.2,15,0.00,CLR,,0.00,WeatherDisplay:10.37,2013-08-05 05:33:00,
2013-08-04 22:38:00,74.9,25.6,29.99,NNW,336,8.1,8.1,16,0.00,CLR,,0.00,WeatherDisplay:10.37,2013-08-05 05:38:00,
2013-08-04 22:43:00,74.8,27.0,29.99,NNW,336,6.9,6.9,17,0.00,CLR,,0.00,WeatherDisplay:10.37,2013-08-05 05:43:00,
2013-08-04 22:48:00,74.8,28.4,29.99,NNW,336,7.0,7.0,18,0.00,CLR,,0.00,WeatherDisplay:10.37,2013-08-05 05:48:00,
2013-08-04 22:53:00,74.8,29.8,29.99,NNW,336,6.9,6.9,19,0.00,CLR,,0.00,WeatherDisplay:10.37,2013-08-05 05:53:00,
2013-08-04 22:58:00,74.7,30.9,29.99,NNW,336,4.6,4.6,20,0.00,CLR,,0.00,WeatherDisplay:10.37,2013-08-05 05:58:00,
2013-08-04 23:03:00,74.5,32.0,29.99,NNW,336,6.0,6.0,21,0.00,CLR,,0.00,WeatherDisplay:10.37,2013-08-05 06:03:00,
2013-08-04 23:08:00,74.4,31.9,29.99,NNW,336,5.8,5.8,21,0.00,CLR,,0.00,WeatherDisplay:10.37,2013-08-05 06:08:00,
2013-08-04 23:13:00,74.5,32.0,29.99,NNW,336,6.0,6.0,21,0.00,CLR,,0.00,WeatherDisplay:10.37,2013-08-05 06:13:00,
2013-08-04 23:18:00,74.7,32.1,29.99,NNW,336,5.8,5.9,21,0.00,CLR,,0.00,WeatherDisplay:10.37,2013-08-05 06:18:00,
2013-08-04 23:23:00,74.6,32.1,29.99,NNW,336,6.0,6.0,21,0.00,CLR,,0.00,WeatherDisplay:10.37,2013-08-05 06:23:00,
2013-08-04 23:28:00,74.4,33.1,29.99,NNW,336,5.0,5.0,22,0.00,CLR,,0.00,WeatherDisplay:10.37,2013-08-05 06:28:00,
2013-08-04 23:33:00,74.2,34.0,29.99,NNW,336,5.0,5.0,23,0.00,CLR,,0.00,WeatherDisplay:10.37,2013-08-05 06:33:00,
2013-08-04 23:38:00,73.9,33.7,29.99,NNW,336,5.0,5.0,23,0.00,CLR,,0.00,WeatherDisplay:10.37,2013-08-05 06:38:00,
2013-08-04 23:43:00,73.6,34.6,29.99,NNW,336,4.6,4.6,24,0.00,CLR,,0.00,WeatherDisplay:10.37,2013-08-05 06:43:00,
2013-08-04 23:48:00,73.3,34.3,29.99,NNW,336,4.6,4.6,24,0.00,CLR,,0.00,WeatherDisplay:10.37,2013-08-05 06:48:00,
2013-08-04 23:53:00,72.6,34.7,29.98,NNW,336,4.6,4.6,25,0.00,CLR,,0.00,WeatherDisplay:10.37,2013-08-05 06:53:00,
2013-08-04 23:58:00,72.1,34.3,29.99,NNW,336,3.5,3.5,25,0.00,CLR,,0.00,WeatherDisplay:10.37,2013-08-05 06:58:00,